• Join FlightAware (Why Join?)
  • Login
  • US Flag 
10:25PM EST


 

Airport Tracker/Info


-or-


 

Live Flight TrackerFlight Track Log ✈ DAL2039 ✈ 30-Sep-2013 ✈ KDCA - KATL

Flight Track Log - Related Links

Times and Time Zones

All times are in EDT time to prevent confusion due to time zone crossing. See the DAL2039 flight status page for this flight to view local times or setup timezone preferences in your user account.

Time Position Orientation Groundspeed Altitude Reporting Facility
EDT Latitude Longitude Course Direction KTS MPH feet Rate Location/Type
03:09PM 38.8000 -77.0333 239° Southwest 210 242 2,300  Level Potomac TRACON
03:10PM 38.7167 -77.0333 180° South 271 312 5,100 2,760 Climbing Potomac TRACON
03:11PM 38.6249 -77.3963 236° Southwest  Level Estimated
03:12PM 38.5630 -77.5280 239° Southwest  Level FlightAware Approximate
03:12PM 38.6833 -77.2167 257° West 306 352 11,000  Level Potomac TRACON
03:13PM 38.5010 -77.6594 239° Southwest  Level FlightAware Approximate
03:13PM 38.6500 -77.3333 250° West 373 429 12,800  Level Potomac TRACON
03:14PM 38.5961 -77.4831 245° Southwest 412 474 15,900 2,400 Climbing Washington Center
03:15PM 38.5481 -77.6172 245° Southwest 417 480 18,300 2,340 Climbing Washington Center
03:16PM 38.4958 -77.7536 244° Southwest 423 487 20,700 1,320 Climbing Washington Center
03:17PM 38.4286 -77.8842 237° Southwest 428 493 21,000 960 Climbing Washington Center
03:18PM 38.3594 -78.0119 235° Southwest 443 510 22,700 1,560 Climbing Washington Center
03:19PM 38.2900 -78.1444 236° Southwest 454 522 24,200 1,140 Climbing Washington Center
03:20PM 38.2181 -78.2822 236° Southwest 461 531 25,000 720 Climbing Washington Center
03:21PM 38.1442 -78.4142 235° Southwest 466 536 25,700 1,380 Climbing Washington Center
03:22PM 38.0678 -78.5617 237° Southwest 466 536 27,900 1,140 Climbing Washington Center
03:23PM 37.9733 -78.6658 221° Southwest 459 528 28,000 600 Climbing Washington Center
03:24PM 37.8747 -78.7697 220° Southwest 459 528 29,200 1,380 Climbing Washington Center
03:25PM 37.7886 -78.8633 221° Southwest 459 528 30,900 1,680 Climbing Washington Center
03:26PM 37.6919 -78.9642 220° Southwest 459 528 32,600 1,020 Climbing Washington Center
03:27PM 37.6014 -79.0703 223° Southwest 459 528 33,000 300 Climbing Washington Center
03:28PM 37.5181 -79.2078 233° Southwest 449 517 33,300 540 Climbing Washington Center
03:29PM 37.4439 -79.3167 229° Southwest 461 531 34,100 840 Climbing Washington Center
03:30PM 37.3647 -79.4461 232° Southwest 461 531 35,100 840 Climbing Washington Center
03:31PM 37.2875 -79.5728 233° Southwest 461 531 35,900 420 Climbing Washington Center
03:32PM 37.2056 -79.7119 234° Southwest 461 531 36,000  Climbing Washington Center
03:33PM 37.1261 -79.8381 232° Southwest 461 531 36,000  Level Washington Center
03:35PM 37.0064 -80.0336 233° Southwest 479 551 36,000  Level Atlanta Center
03:36PM 36.9292 -80.1569 232° Southwest 473 544 36,000  Level Atlanta Center
03:37PM 36.8494 -80.2828 232° Southwest 473 544 36,000  Level Atlanta Center
03:38PM 36.7800 -80.3922 232° Southwest 473 544 36,000  Level Atlanta Center
03:39PM 36.7022 -80.5150 232° Southwest 468 539 36,000  Level Atlanta Center
03:40PM 36.6225 -80.6450 233° Southwest 448 516 36,000  Level Atlanta Center
03:41PM 36.5444 -80.7647 231° Southwest 448 516 36,000  Level Atlanta Center
03:42PM 36.4683 -80.8867 232° Southwest 454 522 36,000  Level Atlanta Center
03:43PM 36.3881 -81.0108 231° Southwest 454 522 36,000  Level Atlanta Center
03:44PM 36.3197 -81.1217 233° Southwest 454 522 36,000  Level Atlanta Center
03:45PM 36.2414 -81.2456 232° Southwest 454 522 36,000  Level Atlanta Center
03:46PM 36.1628 -81.3667 231° Southwest 454 522 36,000  Level Atlanta Center
03:47PM 36.0858 -81.4847 231° Southwest 454 522 36,000  Level Atlanta Center
03:48PM 36.0050 -81.6081 231° Southwest 454 522 36,000  Level Atlanta Center
03:49PM 35.9258 -81.7283 231° Southwest 454 522 36,000  Level Atlanta Center
03:50PM 35.8469 -81.8483 231° Southwest 454 522 36,000  Level Atlanta Center
03:51PM 35.7611 -81.9608 227° Southwest 454 522 36,000  Level Atlanta Center
03:52PM 35.6714 -82.0781 227° Southwest 460 529 36,000 -540 Level Atlanta Center
03:53PM 35.5875 -82.1872 227° Southwest 454 522 35,000 -600 Descending Atlanta Center
03:54PM 35.4994 -82.2964 225° Southwest 454 522 34,800 -1,020 Descending Atlanta Center
03:55PM 35.4008 -82.4106 223° Southwest 449 517 33,000 -1,800 Descending Atlanta Center
03:56PM 35.3061 -82.5169 223° Southwest 455 524 31,200 -1,560 Descending Atlanta Center
03:57PM 35.2156 -82.6100 220° Southwest 462 532 29,900 -1,500 Descending Atlanta Center
03:58PM 35.1228 -82.7183 224° Southwest 457 526 28,200 -1,560 Descending Atlanta Center
03:59PM 35.0342 -82.8136 221° Southwest 451 519 26,800 -1,080 Descending Atlanta Center
04:00PM 34.9453 -82.9111 222° Southwest 443 510 26,100 -840 Descending Atlanta Center
04:01PM 34.8564 -83.0086 222° Southwest 433 498 25,200 -960 Descending Atlanta Center
04:02PM 34.7675 -83.1031 221° Southwest 428 493 24,200 -600 Descending Atlanta Center
04:03PM 34.6825 -83.2028 224° Southwest 433 498 24,000 -120 Descending Atlanta Center
04:04PM 34.5975 -83.2919 221° Southwest 426 490 24,000 -60 Level Atlanta Center
04:05PM 34.5167 -83.3783 221° Southwest 400 460 23,900 -840 Descending Atlanta Center
04:06PM 34.4400 -83.4594 221° Southwest 379 436 22,400 -1,380 Descending Atlanta Center
04:07PM 34.3756 -83.5328 223° Southwest 369 425 21,200 -1,500 Descending Atlanta Center
04:08PM 34.3069 -83.6089 223° Southwest 350 403 19,500 -1,800 Descending Atlanta Center
04:09PM 34.2383 -83.6794 220° Southwest 336 387 17,600 -1,920 Descending Atlanta Center
04:10PM 34.1697 -83.7525 221° Southwest 331 381 15,700 -1,800 Descending Atlanta Center
04:11PM 34.1050 -83.8231 222° Southwest 331 381 14,100 -900 Descending Atlanta Center
04:12PM 34.0406 -83.8933 222° Southwest 331 381 14,000 -480 Descending Atlanta Center
04:12PM 34.0000 -83.9333 219° Southwest 303 349 13,400 -1,440 Descending Atlanta TRACON
04:13PM 33.9333 -83.9833 212° Southwest 304 350 12,000 -720 Descending Atlanta TRACON
04:14PM 33.8500 -84.0500 214° Southwest 304 350 12,000  Level Atlanta TRACON
04:15PM 33.7833 -84.1000 212° Southwest 304 350 12,000  Level Atlanta TRACON
04:16PM 33.7333 -84.1667 228° Southwest 299 344 12,000  Level Atlanta TRACON
04:17PM 33.7333 -84.2667 270° West 271 312 12,000 -1,020 Level Atlanta TRACON
04:18PM 33.7333 -84.3667 270° West 273 314 9,900 -2,220 Descending Atlanta TRACON
04:19PM 33.7333 -84.4500 270° West 262 302 7,600 -2,160 Descending Atlanta TRACON
04:20PM 33.7333 -84.5167 270° West 245 282 5,800 -1,920 Descending Atlanta TRACON
04:21PM 33.7333 -84.6000 270° West 245 282 4,000 -1,200 Descending Atlanta TRACON
04:22PM 33.6833 -84.6333 209° Southwest 181 208 3,400 -600 Descending Atlanta TRACON
04:23PM 33.6667 -84.5833 112° Southeast 178 205 2,900 -480 Descending Atlanta TRACON
04:24PM 33.6500 -84.5167 107° East 182 209 2,500 -600 Descending Atlanta TRACON
04:25PM 33.6500 -84.4667 90° East 142 163 1,700 -840 Descending Atlanta TRACON